sensor_id;sensor_type;location;lat;lon;timestamp;temperature;humidity
18729;DHT22;9493;51.884;5.188;2023-07-13T00:01:35;16.80;99.90
18729;DHT22;9493;51.884;5.188;2023-07-13T00:04:05;16.80;99.90
18729;DHT22;9493;51.884;5.188;2023-07-13T00:06:32;16.70;99.90
18729;DHT22;9493;51.884;5.188;2023-07-13T00:09:01;16.70;99.90
18729;DHT22;9493;51.884;5.188;2023-07-13T00:11:28;16.70;99.90
18729;DHT22;9493;51.884;5.188;2023-07-13T00:13:55;16.60;99.90
18729;DHT22;9493;51.884;5.188;2023-07-13T00:16:22;16.60;99.90
18729;DHT22;9493;51.884;5.188;2023-07-13T00:18:49;16.60;99.90
18729;DHT22;9493;51.884;5.188;2023-07-13T00:21:17;16.50;99.90
18729;DHT22;9493;51.884;5.188;2023-07-13T00:23:44;16.50;99.90
18729;DHT22;9493;51.884;5.188;2023-07-13T00:26:12;16.50;99.90
18729;DHT22;9493;51.884;5.188;2023-07-13T00:28:39;16.50;99.90
18729;DHT22;9493;51.884;5.188;2023-07-13T00:31:07;16.50;99.90
18729;DHT22;9493;51.884;5.188;2023-07-13T00:33:35;16.40;99.90
18729;DHT22;9493;51.884;5.188;2023-07-13T00:36:03;16.50;99.90
18729;DHT22;9493;51.884;5.188;2023-07-13T00:38:31;16.40;99.90
18729;DHT22;9493;51.884;5.188;2023-07-13T00:40:58;16.30;99.90
18729;DHT22;9493;51.884;5.188;2023-07-13T00:43:27;16.30;99.90
18729;DHT22;9493;51.884;5.188;2023-07-13T00:46:19;16.30;99.90
18729;DHT22;9493;51.884;5.188;2023-07-13T00:48:48;16.20;99.90
18729;DHT22;9493;51.884;5.188;2023-07-13T00:51:19;16.20;99.90
18729;DHT22;9493;51.884;5.188;2023-07-13T00:53:47;16.10;99.90
18729;DHT22;9493;51.884;5.188;2023-07-13T00:56:14;16.10;99.90
18729;DHT22;9493;51.884;5.188;2023-07-13T00:58:41;16.10;99.90
18729;DHT22;9493;51.884;5.188;2023-07-13T01:01:09;16.10;99.90
18729;DHT22;9493;51.884;5.188;2023-07-13T01:03:36;16.00;99.90
18729;DHT22;9493;51.884;5.188;2023-07-13T01:06:03;16.00;99.90
18729;DHT22;9493;51.884;5.188;2023-07-13T01:08:30;16.00;99.90
18729;DHT22;9493;51.884;5.188;2023-07-13T01:10:59;16.00;99.90
18729;DHT22;9493;51.884;5.188;2023-07-13T01:13:26;15.80;99.90
18729;DHT22;9493;51.884;5.188;2023-07-13T01:15:55;15.90;99.90
18729;DHT22;9493;51.884;5.188;2023-07-13T01:18:25;15.90;99.90
18729;DHT22;9493;51.884;5.188;2023-07-13T01:20:54;15.90;99.90
18729;DHT22;9493;51.884;5.188;2023-07-13T01:23:22;15.80;99.90
18729;DHT22;9493;51.884;5.188;2023-07-13T01:25:50;15.70;99.90
18729;DHT22;9493;51.884;5.188;2023-07-13T01:28:17;15.80;99.90
18729;DHT22;9493;51.884;5.188;2023-07-13T01:30:46;15.70;99.90
18729;DHT22;9493;51.884;5.188;2023-07-13T01:33:14;15.70;99.90
18729;DHT22;9493;51.884;5.188;2023-07-13T01:35:42;15.70;99.90
18729;DHT22;9493;51.884;5.188;2023-07-13T01:38:10;15.80;99.90
18729;DHT22;9493;51.884;5.188;2023-07-13T01:40:38;15.70;99.90
18729;DHT22;9493;51.884;5.188;2023-07-13T01:43:05;15.70;99.90
18729;DHT22;9493;51.884;5.188;2023-07-13T01:45:32;15.70;99.90
18729;DHT22;9493;51.884;5.188;2023-07-13T01:47:59;15.70;99.90
18729;DHT22;9493;51.884;5.188;2023-07-13T01:50:27;15.60;99.90
18729;DHT22;9493;51.884;5.188;2023-07-13T01:52:54;15.60;99.90
18729;DHT22;9493;51.884;5.188;2023-07-13T01:55:22;15.60;99.90
18729;DHT22;9493;51.884;5.188;2023-07-13T01:57:49;15.50;99.90
18729;DHT22;9493;51.884;5.188;2023-07-13T02:00:17;15.50;99.90
18729;DHT22;9493;51.884;5.188;2023-07-13T02:02:44;15.60;99.90
18729;DHT22;9493;51.884;5.188;2023-07-13T02:05:11;15.60;99.90
18729;DHT22;9493;51.884;5.188;2023-07-13T02:07:39;15.50;99.90
18729;DHT22;9493;51.884;5.188;2023-07-13T02:10:07;15.50;99.90
18729;DHT22;9493;51.884;5.188;2023-07-13T02:12:36;15.50;99.90
18729;DHT22;9493;51.884;5.188;2023-07-13T02:15:04;15.50;99.90
18729;DHT22;9493;51.884;5.188;2023-07-13T02:17:32;15.40;99.90
18729;DHT22;9493;51.884;5.188;2023-07-13T02:19:58;15.40;99.90
18729;DHT22;9493;51.884;5.188;2023-07-13T02:22:25;15.40;99.90
18729;DHT22;9493;51.884;5.188;2023-07-13T02:24:52;15.40;99.90
18729;DHT22;9493;51.884;5.188;2023-07-13T02:27:19;15.30;99.90
18729;DHT22;9493;51.884;5.188;2023-07-13T02:29:48;15.30;99.90
18729;DHT22;9493;51.884;5.188;2023-07-13T02:32:16;15.30;99.90
18729;DHT22;9493;51.884;5.188;2023-07-13T02:34:44;15.30;99.90
18729;DHT22;9493;51.884;5.188;2023-07-13T02:37:11;15.30;99.90
18729;DHT22;9493;51.884;5.188;2023-07-13T02:39:38;15.20;99.90
18729;DHT22;9493;51.884;5.188;2023-07-13T02:42:06;15.20;99.90
18729;DHT22;9493;51.884;5.188;2023-07-13T02:44:33;15.20;99.90
18729;DHT22;9493;51.884;5.188;2023-07-13T02:47:01;15.20;99.90
18729;DHT22;9493;51.884;5.188;2023-07-13T02:49:28;15.20;99.90
18729;DHT22;9493;51.884;5.188;2023-07-13T02:51:55;15.20;99.90
18729;DHT22;9493;51.884;5.188;2023-07-13T02:54:22;15.20;99.90
18729;DHT22;9493;51.884;5.188;2023-07-13T02:56:49;15.20;99.90
18729;DHT22;9493;51.884;5.188;2023-07-13T02:59:16;15.20;99.90
18729;DHT22;9493;51.884;5.188;2023-07-13T03:01:43;15.10;99.90
18729;DHT22;9493;51.884;5.188;2023-07-13T03:04:11;15.10;99.90
18729;DHT22;9493;51.884;5.188;2023-07-13T03:06:38;15.00;99.90
18729;DHT22;9493;51.884;5.188;2023-07-13T03:09:05;15.00;99.90
18729;DHT22;9493;51.884;5.188;2023-07-13T03:11:33;15.00;99.90
18729;DHT22;9493;51.884;5.188;2023-07-13T03:14:00;15.00;99.90
18729;DHT22;9493;51.884;5.188;2023-07-13T03:16:27;15.10;99.90
18729;DHT22;9493;51.884;5.188;2023-07-13T03:18:54;15.00;99.90
18729;DHT22;9493;51.884;5.188;2023-07-13T03:21:22;15.00;99.90
18729;DHT22;9493;51.884;5.188;2023-07-13T03:23:49;15.00;99.90
18729;DHT22;9493;51.884;5.188;2023-07-13T03:26:18;14.90;99.90
18729;DHT22;9493;51.884;5.188;2023-07-13T03:28:46;15.00;99.90
18729;DHT22;9493;51.884;5.188;2023-07-13T03:31:15;15.00;99.90
18729;DHT22;9493;51.884;5.188;2023-07-13T03:33:43;15.00;99.90
18729;DHT22;9493;51.884;5.188;2023-07-13T03:36:14;15.00;99.90
18729;DHT22;9493;51.884;5.188;2023-07-13T03:38:43;14.90;99.90
18729;DHT22;9493;51.884;5.188;2023-07-13T03:41:09;15.00;99.90
18729;DHT22;9493;51.884;5.188;2023-07-13T03:43:36;15.00;99.90
18729;DHT22;9493;51.884;5.188;2023-07-13T03:46:03;15.00;99.90
18729;DHT22;9493;51.884;5.188;2023-07-13T03:48:30;15.00;99.90
18729;DHT22;9493;51.884;5.188;2023-07-13T03:50:57;15.00;99.90
18729;DHT22;9493;51.884;5.188;2023-07-13T03:53:24;15.00;99.90
18729;DHT22;9493;51.884;5.188;2023-07-13T03:55:52;15.00;99.90
18729;DHT22;9493;51.884;5.188;2023-07-13T03:58:33;15.00;99.90
18729;DHT22;9493;51.884;5.188;2023-07-13T04:01:01;15.00;99.90
18729;DHT22;9493;51.884;5.188;2023-07-13T04:03:28;14.90;99.90
18729;DHT22;9493;51.884;5.188;2023-07-13T04:05:58;15.00;99.90
18729;DHT22;9493;51.884;5.188;2023-07-13T04:08:27;14.90;99.90
18729;DHT22;9493;51.884;5.188;2023-07-13T04:10:55;15.00;99.90
18729;DHT22;9493;51.884;5.188;2023-07-13T04:13:23;14.90;99.90
18729;DHT22;9493;51.884;5.188;2023-07-13T04:15:50;14.90;99.90
18729;DHT22;9493;51.884;5.188;2023-07-13T04:18:18;14.90;99.90
18729;DHT22;9493;51.884;5.188;2023-07-13T04:20:45;15.00;99.90
18729;DHT22;9493;51.884;5.188;2023-07-13T04:23:12;15.00;99.90
18729;DHT22;9493;51.884;5.188;2023-07-13T04:25:42;15.00;99.90
18729;DHT22;9493;51.884;5.188;2023-07-13T04:28:11;14.90;99.90
18729;DHT22;9493;51.884;5.188;2023-07-13T04:30:38;15.00;99.90
18729;DHT22;9493;51.884;5.188;2023-07-13T04:33:05;15.00;99.90
18729;DHT22;9493;51.884;5.188;2023-07-13T04:35:32;15.00;99.90
18729;DHT22;9493;51.884;5.188;2023-07-13T04:37:59;15.00;99.90
18729;DHT22;9493;51.884;5.188;2023-07-13T04:40:26;15.00;99.90
18729;DHT22;9493;51.884;5.188;2023-07-13T04:42:54;15.00;99.90
18729;DHT22;9493;51.884;5.188;2023-07-13T04:45:23;15.10;99.90
18729;DHT22;9493;51.884;5.188;2023-07-13T04:47:50;15.10;99.90
18729;DHT22;9493;51.884;5.188;2023-07-13T04:50:17;15.10;99.90
18729;DHT22;9493;51.884;5.188;2023-07-13T04:52:48;15.20;99.90
18729;DHT22;9493;51.884;5.188;2023-07-13T04:55:16;15.20;99.90
18729;DHT22;9493;51.884;5.188;2023-07-13T04:57:43;15.30;99.90
18729;DHT22;9493;51.884;5.188;2023-07-13T05:00:11;15.30;99.90
18729;DHT22;9493;51.884;5.188;2023-07-13T05:02:40;15.40;99.90
18729;DHT22;9493;51.884;5.188;2023-07-13T05:05:07;15.40;99.90
18729;DHT22;9493;51.884;5.188;2023-07-13T05:07:34;15.40;99.90
18729;DHT22;9493;51.884;5.188;2023-07-13T05:10:02;15.40;99.90
18729;DHT22;9493;51.884;5.188;2023-07-13T05:12:29;15.50;99.90
18729;DHT22;9493;51.884;5.188;2023-07-13T05:14:56;15.50;99.90
18729;DHT22;9493;51.884;5.188;2023-07-13T05:17:23;15.60;99.90
18729;DHT22;9493;51.884;5.188;2023-07-13T05:19:51;15.70;99.90
18729;DHT22;9493;51.884;5.188;2023-07-13T05:22:18;15.70;99.90
18729;DHT22;9493;51.884;5.188;2023-07-13T05:24:45;15.70;99.90
18729;DHT22;9493;51.884;5.188;2023-07-13T05:27:12;15.80;99.90
18729;DHT22;9493;51.884;5.188;2023-07-13T05:29:39;15.90;99.90
18729;DHT22;9493;51.884;5.188;2023-07-13T05:32:06;16.00;99.90
18729;DHT22;9493;51.884;5.188;2023-07-13T05:34:33;16.10;99.90
18729;DHT22;9493;51.884;5.188;2023-07-13T05:37:02;16.20;99.90
18729;DHT22;9493;51.884;5.188;2023-07-13T05:39:29;16.40;99.90
18729;DHT22;9493;51.884;5.188;2023-07-13T05:41:55;16.40;99.90
18729;DHT22;9493;51.884;5.188;2023-07-13T05:44:22;16.40;99.90
18729;DHT22;9493;51.884;5.188;2023-07-13T05:46:49;16.50;99.90
18729;DHT22;9493;51.884;5.188;2023-07-13T05:49:16;16.40;99.90
18729;DHT22;9493;51.884;5.188;2023-07-13T05:51:43;16.50;99.90
18729;DHT22;9493;51.884;5.188;2023-07-13T05:54:11;16.40;99.90
18729;DHT22;9493;51.884;5.188;2023-07-13T05:56:38;16.50;99.90
18729;DHT22;9493;51.884;5.188;2023-07-13T05:59:05;16.70;99.90
18729;DHT22;9493;51.884;5.188;2023-07-13T06:01:32;16.70;99.90
18729;DHT22;9493;51.884;5.188;2023-07-13T06:03:59;16.80;99.90
18729;DHT22;9493;51.884;5.188;2023-07-13T06:06:26;16.80;99.90
18729;DHT22;9493;51.884;5.188;2023-07-13T06:08:53;17.00;99.90
18729;DHT22;9493;51.884;5.188;2023-07-13T06:11:23;17.00;99.90
18729;DHT22;9493;51.884;5.188;2023-07-13T06:13:50;17.00;99.90
18729;DHT22;9493;51.884;5.188;2023-07-13T06:16:18;17.10;99.90
18729;DHT22;9493;51.884;5.188;2023-07-13T06:18:45;17.20;99.90
18729;DHT22;9493;51.884;5.188;2023-07-13T06:21:13;17.30;99.90
18729;DHT22;9493;51.884;5.188;2023-07-13T06:23:41;17.40;99.90
18729;DHT22;9493;51.884;5.188;2023-07-13T06:26:09;17.30;99.90
18729;DHT22;9493;51.884;5.188;2023-07-13T06:28:38;17.30;99.90
18729;DHT22;9493;51.884;5.188;2023-07-13T06:31:06;17.40;99.90
18729;DHT22;9493;51.884;5.188;2023-07-13T06:33:33;17.40;99.90
18729;DHT22;9493;51.884;5.188;2023-07-13T06:36:01;17.60;99.90
18729;DHT22;9493;51.884;5.188;2023-07-13T06:38:28;17.50;99.90
18729;DHT22;9493;51.884;5.188;2023-07-13T06:40:55;17.70;99.90
18729;DHT22;9493;51.884;5.188;2023-07-13T06:43:22;17.70;99.90
18729;DHT22;9493;51.884;5.188;2023-07-13T06:45:54;17.80;99.90
18729;DHT22;9493;51.884;5.188;2023-07-13T06:48:21;17.80;99.90
18729;DHT22;9493;51.884;5.188;2023-07-13T06:50:48;17.90;99.90
18729;DHT22;9493;51.884;5.188;2023-07-13T06:53:17;18.00;99.90
18729;DHT22;9493;51.884;5.188;2023-07-13T06:55:45;18.20;99.90
18729;DHT22;9493;51.884;5.188;2023-07-13T06:58:12;18.30;99.90
18729;DHT22;9493;51.884;5.188;2023-07-13T07:00:39;18.20;99.90
18729;DHT22;9493;51.884;5.188;2023-07-13T07:03:08;18.30;99.90
18729;DHT22;9493;51.884;5.188;2023-07-13T07:05:35;18.40;99.90
18729;DHT22;9493;51.884;5.188;2023-07-13T07:08:02;18.30;99.90
18729;DHT22;9493;51.884;5.188;2023-07-13T07:10:30;18.30;99.90
18729;DHT22;9493;51.884;5.188;2023-07-13T07:12:57;18.20;99.90
18729;DHT22;9493;51.884;5.188;2023-07-13T07:15:24;18.30;99.90
18729;DHT22;9493;51.884;5.188;2023-07-13T07:17:51;18.30;99.90
18729;DHT22;9493;51.884;5.188;2023-07-13T07:20:20;18.40;99.90
18729;DHT22;9493;51.884;5.188;2023-07-13T07:22:47;18.40;99.90
18729;DHT22;9493;51.884;5.188;2023-07-13T07:25:14;18.30;99.90
18729;DHT22;9493;51.884;5.188;2023-07-13T07:27:41;18.50;99.90
18729;DHT22;9493;51.884;5.188;2023-07-13T07:30:09;18.60;99.90
18729;DHT22;9493;51.884;5.188;2023-07-13T07:32:37;18.50;99.90
18729;DHT22;9493;51.884;5.188;2023-07-13T07:35:04;18.40;99.90
18729;DHT22;9493;51.884;5.188;2023-07-13T07:37:32;18.60;99.90
18729;DHT22;9493;51.884;5.188;2023-07-13T07:39:59;19.00;99.90
18729;DHT22;9493;51.884;5.188;2023-07-13T07:42:26;18.90;99.90
18729;DHT22;9493;51.884;5.188;2023-07-13T07:44:53;19.10;99.90
18729;DHT22;9493;51.884;5.188;2023-07-13T07:47:20;19.40;99.90
18729;DHT22;9493;51.884;5.188;2023-07-13T07:49:48;19.70;99.90
18729;DHT22;9493;51.884;5.188;2023-07-13T07:52:15;19.60;99.90
18729;DHT22;9493;51.884;5.188;2023-07-13T07:54:44;19.80;99.90
18729;DHT22;9493;51.884;5.188;2023-07-13T07:57:10;20.10;99.90
18729;DHT22;9493;51.884;5.188;2023-07-13T07:59:37;20.00;99.90
18729;DHT22;9493;51.884;5.188;2023-07-13T08:02:06;20.00;99.90
18729;DHT22;9493;51.884;5.188;2023-07-13T08:04:33;20.60;99.90
18729;DHT22;9493;51.884;5.188;2023-07-13T08:07:00;20.20;99.90
18729;DHT22;9493;51.884;5.188;2023-07-13T08:09:28;20.10;99.90
18729;DHT22;9493;51.884;5.188;2023-07-13T08:11:57;20.00;99.90
18729;DHT22;9493;51.884;5.188;2023-07-13T08:14:23;19.80;99.90
18729;DHT22;9493;51.884;5.188;2023-07-13T08:16:51;19.90;99.90
18729;DHT22;9493;51.884;5.188;2023-07-13T08:19:18;20.00;99.90
18729;DHT22;9493;51.884;5.188;2023-07-13T08:21:45;20.00;99.90
18729;DHT22;9493;51.884;5.188;2023-07-13T08:24:14;19.90;99.90
18729;DHT22;9493;51.884;5.188;2023-07-13T08:26:41;19.70;99.90
18729;DHT22;9493;51.884;5.188;2023-07-13T08:29:09;19.30;99.90
18729;DHT22;9493;51.884;5.188;2023-07-13T08:31:36;18.80;99.90
18729;DHT22;9493;51.884;5.188;2023-07-13T08:34:03;18.40;99.90
18729;DHT22;9493;51.884;5.188;2023-07-13T08:36:30;18.10;99.90
18729;DHT22;9493;51.884;5.188;2023-07-13T08:38:57;18.00;99.90
18729;DHT22;9493;51.884;5.188;2023-07-13T08:41:24;18.00;99.90
18729;DHT22;9493;51.884;5.188;2023-07-13T08:43:56;17.90;99.90
18729;DHT22;9493;51.884;5.188;2023-07-13T08:46:28;18.10;99.90
18729;DHT22;9493;51.884;5.188;2023-07-13T08:48:58;18.40;99.90
18729;DHT22;9493;51.884;5.188;2023-07-13T08:51:40;18.50;99.90
18729;DHT22;9493;51.884;5.188;2023-07-13T08:54:17;19.00;99.90
18729;DHT22;9493;51.884;5.188;2023-07-13T08:56:46;19.30;99.90
18729;DHT22;9493;51.884;5.188;2023-07-13T08:59:16;19.20;99.90
18729;DHT22;9493;51.884;5.188;2023-07-13T09:04:43;19.40;99.90
18729;DHT22;9493;51.884;5.188;2023-07-13T09:07:16;19.50;99.90
18729;DHT22;9493;51.884;5.188;2023-07-13T09:09:55;19.80;99.90
18729;DHT22;9493;51.884;5.188;2023-07-13T09:12:31;20.30;99.90
18729;DHT22;9493;51.884;5.188;2023-07-13T09:15:04;20.60;99.90
18729;DHT22;9493;51.884;5.188;2023-07-13T09:17:35;20.20;99.90
18729;DHT22;9493;51.884;5.188;2023-07-13T09:20:10;20.10;99.90
18729;DHT22;9493;51.884;5.188;2023-07-13T09:22:42;20.10;99.90
18729;DHT22;9493;51.884;5.188;2023-07-13T09:25:23;20.20;99.90
18729;DHT22;9493;51.884;5.188;2023-07-13T09:27:53;20.50;99.90
18729;DHT22;9493;51.884;5.188;2023-07-13T09:30:27;20.60;99.90
18729;DHT22;9493;51.884;5.188;2023-07-13T09:32:58;20.70;99.90
18729;DHT22;9493;51.884;5.188;2023-07-13T09:35:27;20.30;99.90
18729;DHT22;9493;51.884;5.188;2023-07-13T09:37:59;20.40;99.90
18729;DHT22;9493;51.884;5.188;2023-07-13T09:40:36;20.00;99.90
18729;DHT22;9493;51.884;5.188;2023-07-13T09:43:08;19.70;99.90
18729;DHT22;9493;51.884;5.188;2023-07-13T09:45:36;20.30;99.90
18729;DHT22;9493;51.884;5.188;2023-07-13T09:48:10;20.90;99.90
18729;DHT22;9493;51.884;5.188;2023-07-13T09:50:38;21.10;99.90
18729;DHT22;9493;51.884;5.188;2023-07-13T09:53:12;20.50;99.90
18729;DHT22;9493;51.884;5.188;2023-07-13T09:55:40;20.20;99.90
18729;DHT22;9493;51.884;5.188;2023-07-13T09:58:11;20.50;99.90
18729;DHT22;9493;51.884;5.188;2023-07-13T10:00:39;21.10;99.90
18729;DHT22;9493;51.884;5.188;2023-07-13T10:03:17;21.50;99.90
18729;DHT22;9493;51.884;5.188;2023-07-13T10:05:46;21.90;99.90
18729;DHT22;9493;51.884;5.188;2023-07-13T10:08:18;21.90;99.90
18729;DHT22;9493;51.884;5.188;2023-07-13T10:10:46;21.70;99.90
18729;DHT22;9493;51.884;5.188;2023-07-13T10:13:35;21.50;99.90
18729;DHT22;9493;51.884;5.188;2023-07-13T10:16:04;21.00;99.90
18729;DHT22;9493;51.884;5.188;2023-07-13T10:18:39;20.60;99.90
18729;DHT22;9493;51.884;5.188;2023-07-13T10:21:13;20.30;99.90
18729;DHT22;9493;51.884;5.188;2023-07-13T10:23:41;19.90;99.90
18729;DHT22;9493;51.884;5.188;2023-07-13T10:26:14;19.90;99.90
18729;DHT22;9493;51.884;5.188;2023-07-13T10:28:44;19.60;99.90
18729;DHT22;9493;51.884;5.188;2023-07-13T10:31:14;19.60;99.90
18729;DHT22;9493;51.884;5.188;2023-07-13T10:33:44;20.30;99.90
18729;DHT22;9493;51.884;5.188;2023-07-13T10:36:15;20.60;99.90
18729;DHT22;9493;51.884;5.188;2023-07-13T10:38:44;20.60;99.90
18729;DHT22;9493;51.884;5.188;2023-07-13T10:41:17;21.10;99.90
18729;DHT22;9493;51.884;5.188;2023-07-13T10:43:48;21.60;99.90
18729;DHT22;9493;51.884;5.188;2023-07-13T10:46:19;21.40;99.90
18729;DHT22;9493;51.884;5.188;2023-07-13T10:48:52;22.00;99.90
18729;DHT22;9493;51.884;5.188;2023-07-13T10:51:21;22.20;99.90
18729;DHT22;9493;51.884;5.188;2023-07-13T10:54:16;21.50;99.90
18729;DHT22;9493;51.884;5.188;2023-07-13T10:56:43;21.10;99.90
18729;DHT22;9493;51.884;5.188;2023-07-13T10:59:14;20.70;99.90
18729;DHT22;9493;51.884;5.188;2023-07-13T11:01:52;20.60;99.90
18729;DHT22;9493;51.884;5.188;2023-07-13T11:04:22;21.40;99.90
18729;DHT22;9493;51.884;5.188;2023-07-13T11:06:53;21.20;99.90
18729;DHT22;9493;51.884;5.188;2023-07-13T11:09:37;20.50;99.90
18729;DHT22;9493;51.884;5.188;2023-07-13T11:12:25;20.30;99.90
18729;DHT22;9493;51.884;5.188;2023-07-13T11:15:06;19.80;99.90
18729;DHT22;9493;51.884;5.188;2023-07-13T11:17:45;20.10;99.90
18729;DHT22;9493;51.884;5.188;2023-07-13T11:20:34;20.20;99.90
18729;DHT22;9493;51.884;5.188;2023-07-13T11:23:19;20.60;99.90
18729;DHT22;9493;51.884;5.188;2023-07-13T11:25:47;21.20;99.90
18729;DHT22;9493;51.884;5.188;2023-07-13T11:28:17;21.70;99.90
18729;DHT22;9493;51.884;5.188;2023-07-13T11:30:48;22.00;99.90
18729;DHT22;9493;51.884;5.188;2023-07-13T11:33:22;22.10;99.90
18729;DHT22;9493;51.884;5.188;2023-07-13T11:36:03;22.60;99.90
18729;DHT22;9493;51.884;5.188;2023-07-13T11:38:33;23.20;99.90
18729;DHT22;9493;51.884;5.188;2023-07-13T11:41:05;23.60;99.90
18729;DHT22;9493;51.884;5.188;2023-07-13T11:43:33;23.70;99.90
18729;DHT22;9493;51.884;5.188;2023-07-13T11:46:13;23.90;99.90
18729;DHT22;9493;51.884;5.188;2023-07-13T11:48:40;23.20;99.90
18729;DHT22;9493;51.884;5.188;2023-07-13T11:51:18;23.60;99.90
18729;DHT22;9493;51.884;5.188;2023-07-13T11:53:48;24.00;99.90
18729;DHT22;9493;51.884;5.188;2023-07-13T11:56:16;23.80;99.90
18729;DHT22;9493;51.884;5.188;2023-07-13T11:58:44;23.90;99.90
18729;DHT22;9493;51.884;5.188;2023-07-13T12:01:18;24.50;99.90
18729;DHT22;9493;51.884;5.188;2023-07-13T12:03:45;24.10;99.90
18729;DHT22;9493;51.884;5.188;2023-07-13T12:06:25;23.90;99.90
18729;DHT22;9493;51.884;5.188;2023-07-13T12:08:56;23.80;99.90
18729;DHT22;9493;51.884;5.188;2023-07-13T12:11:23;23.30;99.90
18729;DHT22;9493;51.884;5.188;2023-07-13T12:13:50;23.40;99.90
18729;DHT22;9493;51.884;5.188;2023-07-13T12:16:26;23.80;99.90
18729;DHT22;9493;51.884;5.188;2023-07-13T12:18:54;23.90;99.90
18729;DHT22;9493;51.884;5.188;2023-07-13T12:21:29;23.50;99.90
18729;DHT22;9493;51.884;5.188;2023-07-13T12:23:57;23.60;99.90
18729;DHT22;9493;51.884;5.188;2023-07-13T12:26:24;23.70;99.90
18729;DHT22;9493;51.884;5.188;2023-07-13T12:28:53;23.80;99.90
18729;DHT22;9493;51.884;5.188;2023-07-13T12:31:34;24.00;99.90
18729;DHT22;9493;51.884;5.188;2023-07-13T12:34:02;24.00;99.90
18729;DHT22;9493;51.884;5.188;2023-07-13T12:36:33;24.50;99.90
18729;DHT22;9493;51.884;5.188;2023-07-13T12:39:04;24.40;99.90
18729;DHT22;9493;51.884;5.188;2023-07-13T12:41:32;23.80;99.90
18729;DHT22;9493;51.884;5.188;2023-07-13T12:44:00;23.40;99.90
18729;DHT22;9493;51.884;5.188;2023-07-13T12:46:27;23.90;99.90
18729;DHT22;9493;51.884;5.188;2023-07-13T12:48:57;24.60;99.90
18729;DHT22;9493;51.884;5.188;2023-07-13T12:51:26;24.50;99.90
18729;DHT22;9493;51.884;5.188;2023-07-13T12:53:57;24.60;99.90
18729;DHT22;9493;51.884;5.188;2023-07-13T12:56:26;24.90;99.90
18729;DHT22;9493;51.884;5.188;2023-07-13T12:58:57;24.20;99.90
18729;DHT22;9493;51.884;5.188;2023-07-13T13:01:27;24.30;99.90
18729;DHT22;9493;51.884;5.188;2023-07-13T13:03:54;24.60;99.90
18729;DHT22;9493;51.884;5.188;2023-07-13T13:06:24;24.50;99.90
18729;DHT22;9493;51.884;5.188;2023-07-13T13:08:52;24.20;99.90
18729;DHT22;9493;51.884;5.188;2023-07-13T13:11:23;24.40;99.90
18729;DHT22;9493;51.884;5.188;2023-07-13T13:13:52;24.30;99.90
18729;DHT22;9493;51.884;5.188;2023-07-13T13:16:22;24.20;99.90
18729;DHT22;9493;51.884;5.188;2023-07-13T13:18:51;23.80;99.90
18729;DHT22;9493;51.884;5.188;2023-07-13T13:21:19;23.90;99.90
18729;DHT22;9493;51.884;5.188;2023-07-13T13:23:46;23.60;99.90
18729;DHT22;9493;51.884;5.188;2023-07-13T13:26:15;23.30;99.90
18729;DHT22;9493;51.884;5.188;2023-07-13T13:28:43;23.60;99.90
18729;DHT22;9493;51.884;5.188;2023-07-13T13:31:11;23.00;99.90
18729;DHT22;9493;51.884;5.188;2023-07-13T13:33:40;23.10;99.90
18729;DHT22;9493;51.884;5.188;2023-07-13T13:36:14;23.60;99.90
18729;DHT22;9493;51.884;5.188;2023-07-13T13:38:42;24.00;99.90
18729;DHT22;9493;51.884;5.188;2023-07-13T13:41:10;24.20;99.90
18729;DHT22;9493;51.884;5.188;2023-07-13T13:43:39;24.40;99.90
18729;DHT22;9493;51.884;5.188;2023-07-13T13:46:14;24.00;99.90
18729;DHT22;9493;51.884;5.188;2023-07-13T13:48:44;24.10;99.90
18729;DHT22;9493;51.884;5.188;2023-07-13T13:51:16;23.40;99.90
18729;DHT22;9493;51.884;5.188;2023-07-13T13:53:44;23.20;99.90
18729;DHT22;9493;51.884;5.188;2023-07-13T13:56:11;23.00;99.90
18729;DHT22;9493;51.884;5.188;2023-07-13T13:58:38;23.00;99.90
18729;DHT22;9493;51.884;5.188;2023-07-13T14:01:16;23.00;99.90
18729;DHT22;9493;51.884;5.188;2023-07-13T14:03:44;23.00;99.90
18729;DHT22;9493;51.884;5.188;2023-07-13T14:06:12;23.00;99.90
18729;DHT22;9493;51.884;5.188;2023-07-13T14:08:39;23.30;99.90
18729;DHT22;9493;51.884;5.188;2023-07-13T14:11:10;23.80;99.90
18729;DHT22;9493;51.884;5.188;2023-07-13T14:13:42;23.70;99.90
18729;DHT22;9493;51.884;5.188;2023-07-13T14:16:13;23.20;99.90
18729;DHT22;9493;51.884;5.188;2023-07-13T14:18:46;22.90;99.90
18729;DHT22;9493;51.884;5.188;2023-07-13T14:21:14;22.90;99.90
18729;DHT22;9493;51.884;5.188;2023-07-13T14:23:43;22.70;99.90
18729;DHT22;9493;51.884;5.188;2023-07-13T14:26:12;22.60;99.90
18729;DHT22;9493;51.884;5.188;2023-07-13T14:28:42;22.70;99.90
18729;DHT22;9493;51.884;5.188;2023-07-13T14:31:11;22.30;99.90
18729;DHT22;9493;51.884;5.188;2023-07-13T14:33:40;22.50;99.90
18729;DHT22;9493;51.884;5.188;2023-07-13T14:36:20;23.30;99.90
18729;DHT22;9493;51.884;5.188;2023-07-13T14:38:48;23.70;99.90
18729;DHT22;9493;51.884;5.188;2023-07-13T14:41:15;23.30;99.90
18729;DHT22;9493;51.884;5.188;2023-07-13T14:43:42;23.00;99.90
18729;DHT22;9493;51.884;5.188;2023-07-13T14:46:19;22.80;99.90
18729;DHT22;9493;51.884;5.188;2023-07-13T14:48:50;22.50;99.90
18729;DHT22;9493;51.884;5.188;2023-07-13T14:51:17;22.40;99.90
18729;DHT22;9493;51.884;5.188;2023-07-13T14:53:44;22.30;99.90
18729;DHT22;9493;51.884;5.188;2023-07-13T14:56:11;22.40;99.90
18729;DHT22;9493;51.884;5.188;2023-07-13T14:58:38;22.50;99.90
18729;DHT22;9493;51.884;5.188;2023-07-13T15:01:11;23.00;99.90
18729;DHT22;9493;51.884;5.188;2023-07-13T15:03:44;22.90;99.90
18729;DHT22;9493;51.884;5.188;2023-07-13T15:06:13;22.80;99.90
18729;DHT22;9493;51.884;5.188;2023-07-13T15:08:40;22.70;99.90
18729;DHT22;9493;51.884;5.188;2023-07-13T15:11:08;22.60;99.90
18729;DHT22;9493;51.884;5.188;2023-07-13T15:13:37;22.70;99.90
18729;DHT22;9493;51.884;5.188;2023-07-13T15:16:05;22.50;99.90
18729;DHT22;9493;51.884;5.188;2023-07-13T15:18:37;23.10;99.90
18729;DHT22;9493;51.884;5.188;2023-07-13T15:21:08;23.80;99.90
18729;DHT22;9493;51.884;5.188;2023-07-13T15:23:37;23.70;99.90
18729;DHT22;9493;51.884;5.188;2023-07-13T15:26:05;24.00;99.90
18729;DHT22;9493;51.884;5.188;2023-07-13T15:28:32;23.90;99.90
18729;DHT22;9493;51.884;5.188;2023-07-13T15:30:59;23.30;99.90
18729;DHT22;9493;51.884;5.188;2023-07-13T15:33:27;23.90;99.90
18729;DHT22;9493;51.884;5.188;2023-07-13T15:35:55;23.80;99.90
18729;DHT22;9493;51.884;5.188;2023-07-13T15:38:26;24.20;99.90
18729;DHT22;9493;51.884;5.188;2023-07-13T15:40:56;23.80;99.90
18729;DHT22;9493;51.884;5.188;2023-07-13T15:43:23;23.30;99.90
18729;DHT22;9493;51.884;5.188;2023-07-13T15:45:50;23.70;99.90
18729;DHT22;9493;51.884;5.188;2023-07-13T15:48:19;23.80;99.90
18729;DHT22;9493;51.884;5.188;2023-07-13T15:50:48;23.40;99.90
18729;DHT22;9493;51.884;5.188;2023-07-13T15:53:23;23.00;99.90
18729;DHT22;9493;51.884;5.188;2023-07-13T15:55:51;23.30;99.90
18729;DHT22;9493;51.884;5.188;2023-07-13T15:58:20;23.70;99.90
18729;DHT22;9493;51.884;5.188;2023-07-13T16:00:47;23.80;99.90